EDHK/KEL METAR and TAF weather

Enter ICAO airport designator
Station Type Date Time Source
EDHK METAR 2018/01/16 09:20 UTC NOAA

EDHK 160920Z 21008KT 180V240 9999 -SHRA SCT008 SCT020 03/02 Q0985


Station Type Date Time Source
EDHK Decoded METAR 2018/01/16 09:20 UTC NOAA

Kiel / Holtenau Civilian, Germany (EDHK) 54-23N 010-10E
Jan 16, 2018 - 04:20 AM EST / 2018.01.16 0920 UTC
Wind: from the SSW (210 degrees) at 9 MPH (8 KT) (direction variable):0
Visibility: greater than 7 mile(s):0
Sky conditions: partly cloudy
Weather: light rain showers
Temperature: 37 F (3 C)
Dew Point: 35 F (2 C)
Relative Humidity: 93%
Pressure (altimeter): 29.09 in. Hg (0985 hPa)
ob: EDHK 160920Z 21008KT 180V240 9999 -SHRA SCT008 SCT020 03/02 Q0985
cycle: 9

Station Type Date Time Source
EDHK TAF 2013/08/11 06:39 UTC NOAA

TAF EDHK 110633Z 1106/1118 24005KT 9999 SCT030
BECMG 1106/1109 25010KT
TEMPO 1106/1118 27015G25KT 4500 SHRA BKN012CB


Example: see airport list